createdAt,value
2023-05-19T00:00:04.878Z,48.1
2023-05-19T00:01:05.880Z,47.5
2023-05-19T00:02:07.204Z,47.2
2023-05-19T00:03:08.105Z,46.7
2023-05-19T00:04:08.899Z,46.7
2023-05-19T00:05:09.851Z,46.7
2023-05-19T00:06:10.915Z,46.6
2023-05-19T00:07:11.917Z,46.6
2023-05-19T00:08:12.952Z,46.3
2023-05-19T00:09:13.881Z,46.4
2023-05-19T00:10:15.025Z,46.6
2023-05-19T00:11:15.912Z,46.5
2023-05-19T00:12:16.973Z,46
2023-05-19T00:13:17.903Z,45.8
2023-05-19T00:14:18.909Z,45.8
2023-05-19T00:15:19.875Z,45.8
2023-05-19T00:16:21.065Z,45.8
2023-05-19T00:17:22.148Z,45.7
2023-05-19T00:18:22.910Z,45.4
2023-05-19T00:19:24.112Z,45.5
2023-05-19T00:20:25.120Z,45.7
2023-05-19T00:21:26.137Z,45.6
2023-05-19T00:22:26.996Z,45.5
2023-05-19T00:23:27.902Z,45.5
2023-05-19T00:24:28.935Z,45.3
2023-05-19T00:25:29.914Z,45.8
2023-05-19T00:26:30.974Z,45.8
2023-05-19T00:27:31.947Z,45.9
2023-05-19T00:28:33.016Z,46
2023-05-19T00:29:33.955Z,45.6
2023-05-19T00:30:34.957Z,45.5
2023-05-19T00:31:36.046Z,45.3
2023-05-19T00:32:37.007Z,45.5
2023-05-19T00:33:37.926Z,45.5
2023-05-19T00:34:38.978Z,45.3
2023-05-19T00:35:39.916Z,45.6
2023-05-19T00:36:41.064Z,45.6
2023-05-19T00:37:41.894Z,45.7
2023-05-19T00:38:42.960Z,45.7
2023-05-19T00:39:44.134Z,45.6
2023-05-19T00:40:45.172Z,45.7
2023-05-19T00:41:45.989Z,45.6
2023-05-19T00:42:46.919Z,45.6
2023-05-19T00:43:48.110Z,45.7
2023-05-19T00:44:49.105Z,45.7
2023-05-19T00:45:50.056Z,45.9
2023-05-19T00:46:51.006Z,46.3
2023-05-19T00:47:52.109Z,46.6
2023-05-19T00:48:52.876Z,46.2
2023-05-19T00:49:53.917Z,46.5
2023-05-19T00:50:54.902Z,46.6
2023-05-19T00:51:55.897Z,46.7
2023-05-19T00:52:57.156Z,46.8
2023-05-19T00:53:57.942Z,46.9
2023-05-19T00:54:58.950Z,46.9
2023-05-19T00:55:59.896Z,47.1
2023-05-19T00:57:00.999Z,47.4
2023-05-19T00:58:01.988Z,47.5
2023-05-19T00:59:02.934Z,47.6
2023-05-19T01:00:04.190Z,47.7
2023-05-19T01:01:05.427Z,48
2023-05-19T01:02:05.954Z,48
2023-05-19T01:03:07.000Z,47.8
2023-05-19T01:04:08.271Z,47.8
2023-05-19T01:05:08.965Z,47.8
2023-05-19T01:06:10.124Z,47.9
2023-05-19T01:07:11.150Z,48
2023-05-19T01:08:12.056Z,48.3
2023-05-19T01:09:13.148Z,48.4
2023-05-19T01:10:13.940Z,48.5
2023-05-19T01:11:15.062Z,48.5
2023-05-19T01:12:15.963Z,48.5
2023-05-19T01:13:16.940Z,48.5
2023-05-19T01:14:17.997Z,48.5
2023-05-19T01:15:18.918Z,48.7
2023-05-19T01:16:20.100Z,48.9
2023-05-19T01:17:20.925Z,48.9
2023-05-19T01:18:22.018Z,49
2023-05-19T01:19:22.983Z,48.8
2023-05-19T01:20:23.978Z,48.6
2023-05-19T01:21:25.006Z,48.8
2023-05-19T01:22:26.004Z,49.1
2023-05-19T01:23:26.918Z,49.5
2023-05-19T01:24:27.897Z,49.5
2023-05-19T01:25:28.902Z,49.1
2023-05-19T01:26:29.998Z,48.8
2023-05-19T01:27:30.998Z,49.1
2023-05-19T01:28:32.174Z,49.4
2023-05-19T01:29:32.963Z,49.6
2023-05-19T01:30:34.095Z,49.7
2023-05-19T01:31:35.046Z,49.8
2023-05-19T01:32:36.059Z,50.1
2023-05-19T01:35:57.942Z,49.9
2023-05-19T01:37:01.026Z,50.2
2023-05-19T01:38:02.037Z,50.3
2023-05-19T01:39:02.915Z,50.3
2023-05-19T01:40:04.157Z,50.3
2023-05-19T01:41:05.058Z,50.5
2023-05-19T01:42:06.111Z,50.7
2023-05-19T01:43:06.980Z,50.5
2023-05-19T01:44:07.963Z,50.7
2023-05-19T01:45:08.960Z,50.6
2023-05-19T01:46:09.975Z,50.1
2023-05-19T01:47:11.058Z,50.3
2023-05-19T01:48:11.944Z,50.3
2023-05-19T01:49:13.026Z,50.3
2023-05-19T01:50:13.950Z,50.3
2023-05-19T01:51:15.008Z,50.3
2023-05-19T01:52:15.999Z,50.2
2023-05-19T01:53:16.965Z,50.1
2023-05-19T01:54:17.958Z,49.6
2023-05-19T01:55:18.980Z,50.1
2023-05-19T01:56:19.967Z,50.3
2023-05-19T01:57:21.022Z,50.3
2023-05-19T01:58:21.961Z,50.4
2023-05-19T01:59:22.983Z,50.5
2023-05-19T02:00:24.002Z,50.4
2023-05-19T02:01:25.011Z,50.4
2023-05-19T02:02:26.068Z,50.3
2023-05-19T02:03:27.007Z,50.2
2023-05-19T02:04:28.013Z,50.1
2023-05-19T02:05:28.944Z,50.2
2023-05-19T02:06:30.152Z,50.2
2023-05-19T02:07:30.979Z,50.1
2023-05-19T02:08:31.982Z,50.1
2023-05-19T02:09:32.942Z,50.1
2023-05-19T02:10:34.195Z,50.1
2023-05-19T02:11:35.138Z,50.2
2023-05-19T02:12:36.127Z,50.3
2023-05-19T02:13:37.019Z,50.4
2023-05-19T02:14:38.003Z,50.6
2023-05-19T02:15:39.038Z,49.9
2023-05-19T02:16:39.995Z,50.6
2023-05-19T02:17:41.032Z,50.9
2023-05-19T02:18:42.156Z,51
2023-05-19T02:19:43.058Z,50.9
2023-05-19T02:20:44.105Z,50.9
2023-05-19T02:21:45.068Z,50.8
2023-05-19T02:22:46.090Z,50.8
2023-05-19T02:23:46.978Z,50.7
2023-05-19T02:24:47.964Z,50.6
2023-05-19T02:25:48.980Z,50.7
2023-05-19T02:26:49.934Z,50.8
2023-05-19T02:27:51.017Z,50.8
2023-05-19T02:28:51.976Z,50.8
2023-05-19T02:29:52.984Z,50.8
2023-05-19T02:30:59.185Z,50.7
2023-05-19T02:32:00.055Z,50.7
2023-05-19T02:33:01.210Z,50.7
2023-05-19T02:34:02.168Z,50.7
2023-05-19T02:35:03.026Z,50.7
2023-05-19T02:36:04.276Z,50.7
2023-05-19T02:37:04.964Z,50.6
2023-05-19T02:38:06.096Z,50.5
2023-05-19T02:39:06.976Z,50.5
2023-05-19T02:40:08.032Z,50.6
2023-05-19T02:41:09.079Z,50.6
2023-05-19T02:42:10.016Z,50.6
2023-05-19T02:43:11.067Z,50.6
2023-05-19T02:44:12.075Z,50.6
2023-05-19T02:45:13.045Z,50.5
2023-05-19T02:46:14.199Z,50.4
2023-05-19T02:47:14.988Z,50.3
2023-05-19T02:48:16.106Z,50.2
2023-05-19T02:49:17.198Z,50.2
2023-05-19T02:50:17.997Z,50.2
2023-05-19T02:51:19.200Z,50.3
2023-05-19T02:52:20.240Z,50.3
2023-05-19T02:53:21.015Z,50.2
2023-05-19T02:54:22.000Z,50.2
2023-05-19T02:55:23.001Z,50.2
2023-05-19T02:56:23.980Z,50.2
2023-05-19T02:57:25.066Z,50.1
2023-05-19T02:58:26.040Z,50.1
2023-05-19T02:59:26.993Z,50.2
2023-05-19T03:00:28.016Z,50.2
2023-05-19T03:01:29.065Z,50.3
2023-05-19T03:02:30.183Z,50.3
2023-05-19T03:03:31.074Z,49.6
2023-05-19T03:04:32.562Z,50.2
2023-05-19T03:05:33.941Z,50.2
2023-05-19T03:06:34.982Z,50.2
2023-05-19T03:07:36.024Z,50.1
2023-05-19T03:08:36.992Z,50
2023-05-19T03:09:37.968Z,50.2
2023-05-19T03:10:38.978Z,50.4
2023-05-19T03:11:40.017Z,50.6
2023-05-19T03:12:41.014Z,50.7
2023-05-19T03:13:42.009Z,50.9
2023-05-19T03:14:42.997Z,50.6
2023-05-19T03:15:43.996Z,50.7
2023-05-19T03:16:45.206Z,50.7
2023-05-19T03:17:46.057Z,50.7
2023-05-19T03:18:47.184Z,50.5
2023-05-19T03:19:48.018Z,50.6
2023-05-19T03:20:49.017Z,50.7
2023-05-19T03:21:50.062Z,50.7
2023-05-19T03:22:51.042Z,50.7
2023-05-19T03:23:52.130Z,50.7
2023-05-19T03:24:53.218Z,50.7
2023-05-19T03:25:54.001Z,50.7
2023-05-19T03:26:55.097Z,50.7
2023-05-19T03:27:56.727Z,50.8
2023-05-19T03:28:58.113Z,50.8
2023-05-19T03:29:59.107Z,50.7
2023-05-19T03:31:00.195Z,50.7
2023-05-19T03:32:01.048Z,50.5
2023-05-19T03:33:02.132Z,50.4
2023-05-19T03:34:03.001Z,50.3
2023-05-19T03:35:04.031Z,50.2
2023-05-19T03:36:05.019Z,50.1
2023-05-19T03:37:06.070Z,50
2023-05-19T03:38:07.155Z,50
2023-05-19T03:39:08.081Z,50
2023-05-19T03:40:09.049Z,50
2023-05-19T03:41:10.060Z,49.5
2023-05-19T03:42:11.067Z,49.8
2023-05-19T03:43:12.221Z,49.8
2023-05-19T03:44:13.180Z,49.8
2023-05-19T03:45:14.122Z,49.7
2023-05-19T03:46:15.103Z,49.7
2023-05-19T03:47:16.025Z,49.6
2023-05-19T03:48:18.480Z,49.5
2023-05-19T03:49:18.025Z,49.6
2023-05-19T03:50:19.180Z,49.5
2023-05-19T03:51:20.091Z,49.5
2023-05-19T03:52:21.066Z,49.5
2023-05-19T03:53:22.108Z,49.4
2023-05-19T03:54:23.035Z,49.5
2023-05-19T03:55:24.042Z,49.5
2023-05-19T03:56:25.200Z,49.5
2023-05-19T03:57:26.178Z,49.6
2023-05-19T03:58:27.124Z,49.4
2023-05-19T03:59:28.240Z,49.3
2023-05-19T04:00:29.256Z,49.3
2023-05-19T04:01:30.040Z,49.3
2023-05-19T04:02:31.099Z,49.3
2023-05-19T04:03:32.050Z,49.2
2023-05-19T04:04:33.091Z,49.1
2023-05-19T04:05:34.021Z,48.5
2023-05-19T04:06:35.099Z,48.6
2023-05-19T04:07:36.049Z,49
2023-05-19T04:08:37.614Z,49.2
2023-05-19T04:09:39.169Z,49.5
2023-05-19T04:10:40.062Z,49.5
2023-05-19T04:11:41.064Z,49.6
2023-05-19T04:12:42.091Z,49.6
2023-05-19T04:13:44.071Z,49.5
2023-05-19T04:14:44.041Z,49
2023-05-19T04:15:45.246Z,49.2
2023-05-19T04:16:46.079Z,49.4
2023-05-19T04:17:47.213Z,49.3
2023-05-19T04:18:48.079Z,48.9
2023-05-19T04:19:49.047Z,49.1
2023-05-19T04:20:50.129Z,49
2023-05-19T04:21:51.081Z,49
2023-05-19T04:22:52.032Z,49
2023-05-19T04:23:53.132Z,48.9
2023-05-19T04:24:54.080Z,48.7
2023-05-19T04:25:55.071Z,48.3
2023-05-19T04:26:56.100Z,48.4
2023-05-19T04:27:57.040Z,48.3
2023-05-19T04:28:58.050Z,48.4
2023-05-19T04:29:59.049Z,48.2
2023-05-19T04:31:00.230Z,48.2
2023-05-19T04:32:01.175Z,48.3
2023-05-19T04:33:02.112Z,48.3
2023-05-19T04:34:03.290Z,48.1
2023-05-19T04:35:04.171Z,47.9
2023-05-19T04:36:05.088Z,47.9
2023-05-19T04:37:06.121Z,47.8
2023-05-19T04:38:07.027Z,47.8
2023-05-19T04:39:08.088Z,47.9
2023-05-19T04:40:09.268Z,47.9
2023-05-19T04:41:10.183Z,47.9
2023-05-19T04:42:11.480Z,47.9
2023-05-19T04:43:13.099Z,47.8
2023-05-19T04:44:14.243Z,47.7
2023-05-19T04:45:15.082Z,47.6
2023-05-19T04:46:16.093Z,47.7
2023-05-19T04:47:17.072Z,47.5
2023-05-19T04:48:18.084Z,47.5
2023-05-19T04:49:19.195Z,47.4
2023-05-19T04:50:20.003Z,47.4
2023-05-19T04:51:21.183Z,47.5
2023-05-19T04:52:22.163Z,47
2023-05-19T04:53:23.084Z,47.3
2023-05-19T04:54:24.207Z,47.4
2023-05-19T04:55:25.200Z,47.2
2023-05-19T04:56:26.082Z,47
2023-05-19T04:57:27.200Z,47.1
2023-05-19T04:58:28.185Z,47.2
2023-05-19T04:59:29.104Z,47.4
2023-05-19T05:00:30.100Z,47.6
2023-05-19T05:01:31.239Z,47.7
2023-05-19T05:02:32.063Z,47.8
2023-05-19T05:03:33.204Z,47.8
2023-05-19T05:04:34.157Z,47.7
2023-05-19T05:05:35.203Z,47.7
2023-05-19T05:06:36.277Z,48.1
2023-05-19T05:07:37.058Z,48.5
2023-05-19T05:08:38.249Z,48.5
2023-05-19T05:09:39.113Z,47.8
2023-05-19T05:10:40.116Z,47.8
2023-05-19T05:11:41.140Z,47.7
2023-05-19T05:12:42.036Z,47.6
2023-05-19T05:13:43.060Z,47.2
2023-05-19T05:14:44.255Z,47.3
2023-05-19T05:15:45.276Z,47.4
2023-05-19T05:16:46.365Z,47.5
2023-05-19T05:17:47.218Z,47.1
2023-05-19T05:18:48.283Z,47.6
2023-05-19T05:19:49.174Z,47.9
2023-05-19T05:20:50.197Z,48.1
2023-05-19T05:21:52.118Z,47.9
2023-05-19T05:22:52.138Z,47.7
2023-05-19T05:23:53.079Z,47.5
2023-05-19T05:24:54.122Z,47.4
2023-05-19T05:25:55.054Z,47.7
2023-05-19T05:26:56.012Z,48.1
2023-05-19T05:28:02.256Z,48.3
2023-05-19T05:29:03.248Z,48.2
2023-05-19T05:30:04.212Z,48.1
2023-05-19T05:31:05.212Z,47.9
2023-05-19T05:32:06.303Z,47.6
2023-05-19T05:33:07.335Z,47.8
2023-05-19T05:34:08.052Z,47.8
2023-05-19T05:35:09.095Z,47.7
2023-05-19T05:36:10.111Z,47.4
2023-05-19T05:37:12.600Z,47.4
2023-05-19T05:38:12.074Z,47.1
2023-05-19T05:39:13.060Z,47
2023-05-19T05:40:14.122Z,46.8
2023-05-19T05:41:15.294Z,46.6
2023-05-19T05:42:16.223Z,46.7
2023-05-19T05:43:17.261Z,46.6
2023-05-19T05:44:18.178Z,46.6
2023-05-19T05:45:19.234Z,46.5
2023-05-19T05:46:20.243Z,46.2
2023-05-19T05:47:21.285Z,45.9
2023-05-19T05:48:22.078Z,45.8
2023-05-19T05:49:23.071Z,45.6
2023-05-19T05:50:24.097Z,45.5
2023-05-19T05:51:25.389Z,45.3
2023-05-19T05:52:26.046Z,45.3
2023-05-19T05:53:27.114Z,45.3
2023-05-19T05:54:28.039Z,45.2
2023-05-19T05:55:29.143Z,45.1
2023-05-19T05:56:30.015Z,45
2023-05-19T05:57:31.178Z,44.9
2023-05-19T05:58:32.106Z,44.8
2023-05-19T05:59:33.138Z,45
2023-05-19T06:00:34.513Z,45.2
2023-05-19T06:01:35.693Z,45.2
2023-05-19T06:02:36.377Z,45.1
2023-05-19T06:03:37.075Z,44.8
2023-05-19T06:04:38.135Z,44.7
2023-05-19T06:05:39.154Z,44.6
2023-05-19T06:06:40.045Z,44.7
2023-05-19T06:07:41.201Z,44.5
2023-05-19T06:08:42.088Z,44.5
2023-05-19T06:09:43.098Z,44.8
2023-05-19T06:10:45.779Z,44.8
2023-05-19T06:11:45.257Z,44.8
2023-05-19T06:12:46.279Z,45.3
2023-05-19T06:13:47.227Z,45.8
2023-05-19T06:14:48.183Z,46.2
2023-05-19T06:15:49.198Z,46.9
2023-05-19T06:16:50.102Z,47.5
2023-05-19T06:17:51.288Z,47.7
2023-05-19T06:18:52.175Z,47.7
2023-05-19T06:19:53.094Z,47.7
2023-05-19T06:20:54.104Z,47.8
2023-05-19T06:21:55.141Z,47.7
2023-05-19T06:22:56.126Z,47.7
2023-05-19T06:23:57.174Z,47.6
2023-05-19T06:24:58.101Z,47.6
2023-05-19T06:25:59.163Z,47.7
2023-05-19T06:27:01.161Z,47.9
2023-05-19T06:28:02.136Z,48.2
2023-05-19T06:29:03.199Z,48.8
2023-05-19T06:30:04.214Z,49
2023-05-19T06:31:05.409Z,49.1
2023-05-19T06:32:06.330Z,48.9
2023-05-19T06:33:07.139Z,48.7
2023-05-19T06:34:08.096Z,48.6
2023-05-19T06:35:09.090Z,48
2023-05-19T06:36:10.097Z,48.1
2023-05-19T06:37:11.201Z,47.9
2023-05-19T06:38:12.143Z,48.1
2023-05-19T06:39:13.288Z,48.2
2023-05-19T06:40:14.200Z,47.6
2023-05-19T06:41:15.373Z,48
2023-05-19T06:42:16.182Z,48
2023-05-19T06:43:17.280Z,47.9
2023-05-19T06:44:19.850Z,47.7
2023-05-19T06:45:19.108Z,47.6
2023-05-19T06:46:20.161Z,47.5
2023-05-19T06:47:21.351Z,47.8
2023-05-19T06:48:22.100Z,48.1
2023-05-19T06:49:23.168Z,47.8
2023-05-19T06:50:24.138Z,48
2023-05-19T06:51:25.219Z,48.4
2023-05-19T06:52:26.247Z,48.7
2023-05-19T06:53:27.057Z,48.8
2023-05-19T06:54:28.057Z,48.6
2023-05-19T06:55:29.122Z,48.4
2023-05-19T06:56:30.176Z,48.6
2023-05-19T06:57:31.260Z,48.8
2023-05-19T06:58:32.204Z,48.5
2023-05-19T06:59:33.199Z,48.7
2023-05-19T07:00:34.401Z,48.6
2023-05-19T07:01:35.294Z,49.1
2023-05-19T07:02:36.686Z,49.3
2023-05-19T07:03:38.343Z,49.5
2023-05-19T07:04:39.139Z,49.6
2023-05-19T07:05:40.102Z,49.8
2023-05-19T07:06:41.085Z,50.2
2023-05-19T07:07:42.159Z,50.4
2023-05-19T07:08:43.268Z,50.4
2023-05-19T07:09:44.411Z,50.5
2023-05-19T07:10:45.297Z,50.5
2023-05-19T07:11:46.275Z,50.3
2023-05-19T07:12:47.142Z,50.5
2023-05-19T07:13:48.123Z,50.5
2023-05-19T07:14:49.209Z,50.3
2023-05-19T07:15:50.105Z,50.3
2023-05-19T07:16:51.245Z,49.8
2023-05-19T07:17:52.240Z,50.1
2023-05-19T07:18:53.180Z,50.2
2023-05-19T07:19:54.136Z,50.4
2023-05-19T07:20:55.060Z,50.5
2023-05-19T07:21:56.089Z,50.4
2023-05-19T07:22:57.186Z,50.2
2023-05-19T07:23:58.125Z,50.3
2023-05-19T07:24:59.120Z,50.2
2023-05-19T07:26:00.159Z,50.1
2023-05-19T07:27:01.161Z,50.2
2023-05-19T07:28:02.223Z,50.2
2023-05-19T07:29:03.186Z,50
2023-05-19T07:30:04.161Z,50
2023-05-19T07:31:05.240Z,50.2
2023-05-19T07:32:06.152Z,50.6
2023-05-19T07:33:07.236Z,50.9
2023-05-19T07:34:08.178Z,51.2
2023-05-19T07:35:09.150Z,51.3
2023-05-19T07:36:10.126Z,51.1
2023-05-19T07:37:11.377Z,51.2
2023-05-19T07:38:12.168Z,51.4
2023-05-19T07:39:13.126Z,51.5
2023-05-19T07:40:14.091Z,51.5
2023-05-19T07:41:15.148Z,51.3
2023-05-19T07:42:16.209Z,51.2
2023-05-19T07:43:17.177Z,50.9
2023-05-19T07:44:18.241Z,50.6
2023-05-19T07:45:19.122Z,50.4
2023-05-19T07:46:20.336Z,50.5
2023-05-19T07:47:21.171Z,50.7
2023-05-19T07:48:22.199Z,50.6
2023-05-19T07:49:23.103Z,50.4
2023-05-19T07:50:24.371Z,50.4
2023-05-19T07:51:25.298Z,50.3
2023-05-19T07:52:26.337Z,50.1
2023-05-19T07:53:27.818Z,50
2023-05-19T07:54:29.276Z,49.7
2023-05-19T07:55:30.319Z,49.6
2023-05-19T07:56:31.180Z,49.2
2023-05-19T07:57:32.216Z,49
2023-05-19T07:58:33.103Z,49.2
2023-05-19T07:59:34.204Z,49.3
2023-05-19T08:00:35.495Z,49.2
2023-05-19T08:01:36.407Z,49.3
2023-05-19T08:02:37.335Z,49.2
2023-05-19T08:03:38.310Z,49.3
2023-05-19T08:04:39.158Z,49.8
2023-05-19T08:05:40.242Z,50.1
2023-05-19T08:06:41.235Z,50.5
2023-05-19T08:07:42.196Z,50.7
2023-05-19T08:08:43.208Z,50.6
2023-05-19T08:09:44.202Z,50.3
2023-05-19T08:10:45.282Z,50.2
2023-05-19T08:11:46.305Z,50.1
2023-05-19T08:12:47.284Z,49.8
2023-05-19T08:13:48.124Z,49.5
2023-05-19T08:14:49.245Z,49.6
2023-05-19T08:15:50.178Z,49.7
2023-05-19T08:16:51.303Z,49.8
2023-05-19T08:17:52.422Z,50
2023-05-19T08:18:53.224Z,50.3
2023-05-19T08:19:54.289Z,50
2023-05-19T08:20:55.410Z,50.3
2023-05-19T08:21:56.318Z,50.3
2023-05-19T08:22:57.129Z,50.4
2023-05-19T08:23:58.107Z,50.3
2023-05-19T08:24:59.190Z,49.8
2023-05-19T08:26:00.242Z,50
2023-05-19T08:27:01.148Z,50
2023-05-19T08:28:02.277Z,49.7
2023-05-19T08:29:03.200Z,50
2023-05-19T08:30:04.219Z,50.3
2023-05-19T08:31:05.293Z,50.5
2023-05-19T08:32:06.173Z,50.7
2023-05-19T08:33:07.282Z,50.9
2023-05-19T08:34:08.298Z,51.1
2023-05-19T08:35:09.278Z,51.2
2023-05-19T08:36:10.340Z,51.1
2023-05-19T08:37:12.172Z,51.2
2023-05-19T08:38:13.174Z,51.3
2023-05-19T08:39:14.172Z,51.3
2023-05-19T08:40:15.109Z,51.2
2023-05-19T08:41:16.163Z,51.4
2023-05-19T08:42:17.188Z,51.1
2023-05-19T08:43:18.263Z,50.8
2023-05-19T08:44:19.281Z,49.9
2023-05-19T08:45:20.300Z,49.3
2023-05-19T08:46:21.254Z,48.6
2023-05-19T08:47:22.140Z,48.7
2023-05-19T08:48:23.176Z,48.9
2023-05-19T08:49:25.667Z,49
2023-05-19T08:50:25.358Z,49.2
2023-05-19T08:51:26.266Z,48.9
2023-05-19T08:52:27.165Z,48.7
2023-05-19T08:53:33.610Z,48.9
2023-05-19T08:54:29.187Z,48.7
2023-05-19T08:55:30.474Z,48.4
2023-05-19T08:56:31.128Z,48.5
2023-05-19T08:57:32.198Z,48.8
2023-05-19T08:58:33.242Z,48.6
2023-05-19T08:59:34.349Z,49
2023-05-19T09:00:35.728Z,49.4
2023-05-19T09:02:37.328Z,49.3
2023-05-19T09:03:38.465Z,49.1
2023-05-19T09:04:39.235Z,48.5
2023-05-19T09:05:40.206Z,48.2
2023-05-19T09:06:41.181Z,47.9
2023-05-19T09:07:42.199Z,47.9
2023-05-19T09:08:43.138Z,48.1
2023-05-19T09:09:44.345Z,48.3
2023-05-19T09:10:45.300Z,48.3
2023-05-19T09:11:46.276Z,48.2
2023-05-19T09:12:47.164Z,47.9
2023-05-19T09:13:48.264Z,47.5
2023-05-19T09:14:49.256Z,47.5
2023-05-19T09:15:50.380Z,47.8
2023-05-19T09:16:51.269Z,47.9
2023-05-19T09:17:52.385Z,48.1
2023-05-19T09:18:53.257Z,47.5
2023-05-19T09:19:54.217Z,47.1
2023-05-19T09:20:55.225Z,46.8
2023-05-19T09:21:56.202Z,46.7
2023-05-19T09:22:57.383Z,46.4
2023-05-19T09:23:58.299Z,46.5
2023-05-19T09:24:59.238Z,46.6
2023-05-19T09:26:00.199Z,46.4
2023-05-19T09:27:01.270Z,46.3
2023-05-19T09:28:02.235Z,46
2023-05-19T09:29:03.236Z,45.8
2023-05-19T09:30:04.320Z,45.8
2023-05-19T09:31:05.372Z,45.6
2023-05-19T09:32:06.383Z,45.6
2023-05-19T09:33:07.346Z,45.6
2023-05-19T09:34:08.298Z,45.3
2023-05-19T09:35:09.177Z,45
2023-05-19T09:36:10.162Z,44.8
2023-05-19T09:37:11.179Z,44.8
2023-05-19T09:38:12.199Z,44.6
2023-05-19T09:39:13.195Z,44.2
2023-05-19T09:40:14.260Z,44.2
2023-05-19T09:41:15.147Z,44
2023-05-19T09:42:16.409Z,43.7
2023-05-19T09:43:17.336Z,43.7
2023-05-19T09:44:18.246Z,43.4
2023-05-19T09:45:19.240Z,43.2
2023-05-19T09:46:20.390Z,43.2
2023-05-19T09:47:21.235Z,43
2023-05-19T09:48:22.194Z,43.2
2023-05-19T09:49:23.329Z,43.7
2023-05-19T09:50:24.328Z,44.1
2023-05-19T09:51:25.297Z,44
2023-05-19T09:52:26.403Z,44.2
2023-05-19T09:53:27.252Z,44
2023-05-19T09:54:28.462Z,43.5
2023-05-19T09:55:29.333Z,43.5
2023-05-19T09:56:30.291Z,43.5
2023-05-19T09:57:31.237Z,43.5
2023-05-19T09:58:32.231Z,43.7
2023-05-19T09:59:34.073Z,43.7
2023-05-19T10:00:34.492Z,43.5
2023-05-19T10:01:35.345Z,43.3
2023-05-19T10:02:36.450Z,43.1
2023-05-19T10:03:37.476Z,42.9
2023-05-19T10:04:38.340Z,42.7
2023-05-19T10:05:39.276Z,42
2023-05-19T10:06:40.257Z,41.7
2023-05-19T10:07:41.296Z,41.6
2023-05-19T10:08:42.269Z,41.4
2023-05-19T10:09:43.256Z,41.2
2023-05-19T10:10:44.255Z,41.6
2023-05-19T10:11:45.320Z,42.1
2023-05-19T10:12:46.285Z,42
2023-05-19T10:13:47.375Z,42.4
2023-05-19T10:14:48.281Z,42.2
2023-05-19T10:15:57.886Z,41.9
2023-05-19T10:16:50.443Z,41.5
2023-05-19T10:17:51.373Z,41.3
2023-05-19T10:18:52.235Z,41.2
2023-05-19T10:19:53.353Z,41
2023-05-19T10:20:54.408Z,40.4
2023-05-19T10:21:55.383Z,40
2023-05-19T10:22:56.404Z,40.1
2023-05-19T10:23:57.375Z,39.1
2023-05-19T10:24:58.476Z,39.6
2023-05-19T10:25:59.360Z,40
2023-05-19T10:27:00.300Z,39.6
2023-05-19T10:28:01.479Z,39.4
2023-05-19T10:29:02.370Z,39.7
2023-05-19T10:30:03.293Z,40
2023-05-19T10:31:04.278Z,39.8
2023-05-19T10:32:05.467Z,39.5
2023-05-19T10:33:06.435Z,40.1
2023-05-19T10:34:07.391Z,40.8
2023-05-19T10:35:08.305Z,41.5
2023-05-19T10:36:09.377Z,41.8
2023-05-19T10:37:10.273Z,42.1
2023-05-19T10:38:11.342Z,41.8
2023-05-19T10:39:12.335Z,41
2023-05-19T10:40:13.246Z,41.7
2023-05-19T10:41:14.264Z,42.1
2023-05-19T10:42:15.276Z,42.5
2023-05-19T10:43:16.443Z,42.5
2023-05-19T10:44:17.396Z,42.4
2023-05-19T10:45:18.405Z,42.6
2023-05-19T10:46:19.294Z,42.4
2023-05-19T10:47:20.342Z,42.6
2023-05-19T10:48:21.360Z,42.3
2023-05-19T10:49:22.320Z,42.3
2023-05-19T10:50:23.200Z,42.5
2023-05-19T10:51:24.238Z,42.4
2023-05-19T10:52:25.283Z,42.5
2023-05-19T10:53:26.689Z,42.5
2023-05-19T10:54:28.419Z,42
2023-05-19T10:55:29.330Z,42
2023-05-19T10:56:30.430Z,41.5
2023-05-19T10:57:31.447Z,41.5
2023-05-19T10:58:32.488Z,41.7
2023-05-19T10:59:33.484Z,41.7
2023-05-19T11:00:34.715Z,41.5
2023-05-19T11:01:35.396Z,41.3
2023-05-19T11:02:37.208Z,41.4
2023-05-19T11:03:38.441Z,40.9
2023-05-19T11:04:39.359Z,40.8
2023-05-19T11:05:40.329Z,40.6
2023-05-19T11:06:41.428Z,40.7
2023-05-19T11:07:42.495Z,40.8
2023-05-19T11:08:43.449Z,40.8
2023-05-19T11:09:44.280Z,40.5
2023-05-19T11:10:45.273Z,40.4
2023-05-19T11:11:46.404Z,40.8
2023-05-19T11:12:47.522Z,41.4
2023-05-19T11:13:48.488Z,41.5
2023-05-19T11:14:49.281Z,41.5
2023-05-19T11:15:50.486Z,41.6
2023-05-19T11:16:51.460Z,41.5
2023-05-19T11:17:52.405Z,41.6
2023-05-19T11:18:53.529Z,41.7
2023-05-19T11:19:54.437Z,41.7
2023-05-19T11:20:55.250Z,41.9
2023-05-19T11:21:56.362Z,41.9
2023-05-19T11:22:57.443Z,41.9
2023-05-19T11:23:58.380Z,42
2023-05-19T11:24:59.483Z,42.2
2023-05-19T11:26:00.419Z,42.4
2023-05-19T11:27:01.379Z,42.8
2023-05-19T11:28:02.501Z,42.9
2023-05-19T11:29:03.302Z,43.1
2023-05-19T11:30:04.285Z,42.9
2023-05-19T11:31:05.429Z,42.7
2023-05-19T11:32:06.478Z,42.5
2023-05-19T11:33:07.509Z,42.7
2023-05-19T11:34:08.425Z,42.7
2023-05-19T11:35:09.326Z,42.9
2023-05-19T11:36:10.443Z,42.9
2023-05-19T11:37:11.421Z,43.1
2023-05-19T11:38:12.465Z,43.9
2023-05-19T11:39:13.405Z,44.4
2023-05-19T11:40:14.418Z,45.2
2023-05-19T11:41:15.240Z,45.9
2023-05-19T11:42:16.280Z,46
2023-05-19T11:43:17.427Z,46
2023-05-19T11:44:18.318Z,46.2
2023-05-19T11:45:19.285Z,46.3
2023-05-19T11:46:20.474Z,46.2
2023-05-19T11:47:21.396Z,46.3
2023-05-19T11:48:22.570Z,46.1
2023-05-19T11:49:23.465Z,45.9
2023-05-19T11:50:24.370Z,45.5
2023-05-19T11:51:25.561Z,45.7
2023-05-19T11:52:26.366Z,45.6
2023-05-19T11:53:27.382Z,45.4
2023-05-19T11:54:28.480Z,45.6
2023-05-19T11:55:29.417Z,46.3
2023-05-19T11:56:30.458Z,46.9
2023-05-19T11:57:31.467Z,47
2023-05-19T11:58:32.409Z,47.1
2023-05-19T11:59:35.574Z,46.9
2023-05-19T12:00:34.299Z,46.7
2023-05-19T12:01:35.364Z,46.4
2023-05-19T12:02:36.489Z,46.7
2023-05-19T12:03:37.690Z,46.6
2023-05-19T12:04:38.486Z,46.6
2023-05-19T12:05:42.182Z,47.1
2023-05-19T12:06:40.556Z,47.3
2023-05-19T12:07:41.412Z,47.3
2023-05-19T12:08:42.560Z,47.1
2023-05-19T12:09:43.385Z,46.6
2023-05-19T12:10:44.493Z,46.3
2023-05-19T12:11:45.537Z,46.1
2023-05-19T12:12:46.448Z,46
2023-05-19T12:13:47.432Z,45.9
2023-05-19T12:14:48.380Z,45.8
2023-05-19T12:15:49.340Z,45.5
2023-05-19T12:16:50.372Z,45.3
2023-05-19T12:17:51.421Z,45.1
2023-05-19T12:18:52.518Z,44.9
2023-05-19T12:19:53.436Z,44.8
2023-05-19T12:20:54.407Z,44.7
2023-05-19T12:21:55.440Z,44.4
2023-05-19T12:22:56.399Z,43.9
2023-05-19T12:23:57.264Z,43.8
2023-05-19T12:24:58.573Z,44
2023-05-19T12:25:59.468Z,43.8
2023-05-19T12:27:00.323Z,44
2023-05-19T12:28:01.275Z,44.1
2023-05-19T12:29:02.422Z,44
2023-05-19T12:30:03.491Z,43.8
2023-05-19T12:31:04.398Z,43.9
2023-05-19T12:32:05.532Z,43.8
2023-05-19T12:33:06.414Z,43.9
2023-05-19T12:34:07.411Z,43.7
2023-05-19T12:35:08.486Z,43.7
2023-05-19T12:36:09.226Z,43.7
2023-05-19T12:37:10.276Z,43.8
2023-05-19T12:38:11.357Z,44
2023-05-19T12:39:12.533Z,44.2
2023-05-19T12:40:13.464Z,44.1
2023-05-19T12:41:14.359Z,44.2
2023-05-19T12:42:15.477Z,44.2
2023-05-19T12:43:16.437Z,44.3
2023-05-19T12:44:17.496Z,44.6
2023-05-19T12:45:18.395Z,44.2
2023-05-19T12:46:19.462Z,44.9
2023-05-19T12:47:20.473Z,45.6
2023-05-19T12:48:21.426Z,45.8
2023-05-19T12:49:22.410Z,45.5
2023-05-19T12:50:23.452Z,45.4
2023-05-19T12:51:24.497Z,45.6
2023-05-19T12:52:25.407Z,45.5
2023-05-19T12:53:26.309Z,45.5
2023-05-19T12:54:27.500Z,45.6
2023-05-19T12:55:28.497Z,45.4
2023-05-19T12:56:29.498Z,45.1
2023-05-19T12:57:30.411Z,45.1
2023-05-19T12:58:31.341Z,45
2023-05-19T12:59:38.236Z,44.5
2023-05-19T13:00:33.834Z,44.8
2023-05-19T13:01:34.747Z,44.8
2023-05-19T13:02:36.595Z,44.8
2023-05-19T13:03:37.797Z,44.8
2023-05-19T13:04:38.389Z,44.6
2023-05-19T13:05:39.428Z,44.8
2023-05-19T13:06:40.459Z,44.9
2023-05-19T13:07:41.482Z,44.9
2023-05-19T13:08:42.224Z,44.7
2023-05-19T13:09:43.440Z,44.1
2023-05-19T13:10:44.312Z,44.8
2023-05-19T13:11:45.348Z,45
2023-05-19T13:12:46.358Z,45.3
2023-05-19T13:13:47.419Z,45.4
2023-05-19T13:14:48.477Z,45.2
2023-05-19T13:15:49.503Z,45.2
2023-05-19T13:16:50.474Z,45.5
2023-05-19T13:17:51.585Z,45.7
2023-05-19T13:18:52.902Z,45.8
2023-05-19T13:19:53.605Z,45.8
2023-05-19T13:20:54.502Z,45.7
2023-05-19T13:21:55.417Z,45.6
2023-05-19T13:22:56.476Z,45.5
2023-05-19T13:23:57.494Z,45.5
2023-05-19T13:24:58.532Z,45.3
2023-05-19T13:25:59.470Z,45.1
2023-05-19T13:27:00.544Z,44.9
2023-05-19T13:28:01.483Z,44.9
2023-05-19T13:29:02.419Z,45.2
2023-05-19T13:30:03.595Z,45.4
2023-05-19T13:31:04.516Z,45.5
2023-05-19T13:32:05.533Z,45.8
2023-05-19T13:33:06.620Z,45.9
2023-05-19T13:34:07.387Z,46.1
2023-05-19T13:35:08.523Z,46
2023-05-19T13:36:09.485Z,46
2023-05-19T13:37:10.422Z,46.1
2023-05-19T13:38:11.440Z,46
2023-05-19T13:39:12.829Z,45.9
2023-05-19T13:40:14.411Z,46